キャンベラ国際空港の過去48時間の天気

キャンベラ国際空港 (Canberra)

現在時刻: 9/26 07:35 AEST (9/25 21:35 UTC) 以下の時間は現地時間です。

過去48時間のMETAR気象情報
時間 風向 風速(m/s) 視程 気温(℃) 湿度(%) 気圧(hPa) 天気現象
26 07:00 北東 2 10km以上 6 93 1018
26 06:30 南東 2 10km以上 5 100 1017
26 06:00 南東 2 10km以上 4 100 1017
26 05:30 南東 1 10km以上 4 100 1017
26 05:00 南東 1 10km以上 4 100 1017
26 04:30 静穏 0 10km以上 4 100 1017
26 04:00 南東 2 10km以上 4 100 1017
26 03:30 3 10km以上 4 100 1017
26 03:00 東南東 1 10km以上 4 93 1016
26 02:30 3 10km以上 3 100 1017
26 02:00 北東 2 10km以上 4 100 1017
26 01:30 東南東 3 10km以上 5 93 1017
26 01:00 東南東 3 10km以上 4 93 1018
26 00:30 静穏 0 10km以上 3 93 1018
26 00:00 静穏 0 10km以上 4 93 1018
25 23:30 1 10km以上 5 87 1018
25 23:00 3 10km以上 6 87 1018
25 22:30 3 10km以上 6 81 1018
25 22:00 3 10km以上 6 81 1018
25 21:30 北東 4 10km以上 8 76 1017
25 21:00 5 10km以上 9 71 1017
25 20:30 5 10km以上 9 71 1017
25 20:00 北北東 5 10km以上 10 66 1017
25 19:30 北北東 5 10km以上 10 66 1017
25 19:00 6 10km以上 11 62 1016
25 18:30 5 10km以上 11 58 1015
25 18:00 7 10km以上 12 54 1015
25 17:30 7 10km以上 13 51 1015
25 17:00 8 10km以上 14 47 1014
25 16:30 8 10km以上 16 45 1014
25 16:00 7 10km以上 15 48 1014
25 15:30 8 10km以上 16 45 1014
25 15:00 8 10km以上 16 45 1014
25 14:30 北北西 8 10km以上 16 51 1014
25 14:00 北北西 7 10km以上 17 52 1015
25 13:30 北西 6 10km以上 16 48 1015
25 13:00 5 10km以上 16 51 1015
25 12:30 北西 5 10km以上 14 51 1015
25 12:00 北西 5 10km以上 15 51 1016
25 11:30 北西 5 10km以上 14 55 1016
25 11:00 西北西 5 10km以上 14 59 1016
25 10:30 北北西 4 10km以上 12 67 1016
25 10:18 北北西 4 10km以上 12 62 1017
25 10:00 西 1 10km以上 12 67 1016
25 09:30 3 10km以上 10 76 1017
25 09:00 西南西 1 10km以上 8 87 1017
25 08:30 2 10km以上 7 100 1017
25 08:00 静穏 0 10km以上 6 100 1017
25 07:30 静穏 0 10km以上 4 100 1016
25 07:00 静穏 0 10km以上 3 100 1016
25 06:48 静穏 0 10km以上 2 100 1016
25 06:30 静穏 0 2000m 2 100 1016 もや
25 06:13 静穏 0 600m 1 100 1016
25 06:03 2 1000m 1 100 1016 もや
25 05:45 2 1100m 1 100 1015 もや
25 05:35 3 250m 1 100 1015
25 05:23 3 500m 1 100 1015
25 05:06 南東 2 1100m 2 100 1015 もや
25 04:57 南東 2 900m 1 100 1015
25 04:35 静穏 0 6000m 2 93 1015
25 04:25 静穏 0 10km以上 2 100 1014
25 04:05 静穏 0 6000m 2 100 1015
25 03:50 静穏 0 10km以上 3 100 1015
25 03:35 南東 1 10km以上 3 100 1015
25 03:00 南東 3 10km以上 3 100 1014
25 02:30 静穏 0 10km以上 4 100 1014
25 02:00 静穏 0 10km以上 5 100 1015
25 01:30 静穏 0 10km以上 6 93 1015
25 01:00 3 10km以上 7 87 1015
25 00:30 3 10km以上 7 93 1015
25 00:00 3 10km以上 7 93 1015
24 23:30 3 10km以上 8 87 1015
24 23:00 4 10km以上 9 87 1015
24 22:30 4 10km以上 10 82 1015
24 22:00 4 10km以上 9 87 1014
24 21:30 北北東 3 10km以上 10 82 1014
24 21:00 北東 3 10km以上 10 82 1014
24 20:30 北北東 2 10km以上 10 76 1014
24 20:00 北北東 3 10km以上 11 76 1014
24 19:30 東北東 2 10km以上 11 76 1013
24 19:00 北西 2 10km以上 11 76 1013
24 18:30 西 4 10km以上 12 67 1012
24 18:00 西北西 6 10km以上 13 62 1012
24 17:30 西 4 10km以上 14 55 1011
24 17:00 西北西 8 10km以上 14 59 1011
24 16:30 西 8 10km以上 15 55 1011
24 16:00 西北西 8 10km以上 16 51 1010
24 15:30 北西 6 10km以上 16 63 1010
24 15:00 北北西 5 10km以上 16 55 1009
24 14:30 北北西 5 10km以上 15 59 1010
24 14:00 北西 6 10km以上 14 67 1010
24 13:30 北北西 4 10km以上 16 59 1010
24 13:00 西北西 4 10km以上 15 63 1010
24 12:30 北北西 3 10km以上 16 51 1011
24 12:00 西北西 3 10km以上 16 55 1011
24 11:30 西北西 2 10km以上 16 59 1011
24 11:00 3 10km以上 14 63 1012
24 10:30 南南東 3 10km以上 14 59 1012
24 10:00 4 10km以上 13 67 1012
24 09:30 5 10km以上 13 67 1013
24 09:00 南南東 5 10km以上 12 71 1012
24 08:30 5 10km以上 12 71 1012
24 08:00 5 10km以上 12 77 1012
YSCB 252100Z AUTO 05004KT 9999 // NCD 06/05 Q1018
YSCB 252030Z AUTO 13004KT 9999 // NCD 05/05 Q1017
YSCB 252000Z AUTO 13003KT 9999 // NCD 04/04 Q1017
YSCB 251930Z AUTO 13001KT 9999 // NCD 04/04 Q1017
YSCB 251900Z AUTO 13002KT 9999 // NCD 04/04 Q1017
YSCB 251830Z AUTO 00000KT 9999 // NCD 04/04 Q1017
YSCB 251800Z AUTO 13004KT 9999 // NCD 04/04 Q1017
YSCB 251730Z AUTO 35005KT 9999 // NCD 04/04 Q1017
YSCB 251700Z AUTO 12001KT 9999 // NCD 04/03 Q1016
YSCB 251630Z AUTO 09005KT 9999 // NCD 03/03 Q1017
YSCB 251600Z AUTO 04003KT 9999 // NCD 04/04 Q1017
YSCB 251530Z AUTO 11005KT 9999 // NCD 05/04 Q1017
YSCB 251500Z AUTO 12005KT 9999 // NCD 04/03 Q1018
YSCB 251430Z AUTO 00000KT 9999 // NCD 03/02 Q1018
YSCB 251400Z AUTO 00000KT 9999 // NCD 04/03 Q1018
YSCB 251330Z AUTO 01002KT 9999 // NCD 05/03 Q1018
YSCB 251300Z AUTO 08006KT 9999 // NCD 06/04 Q1018
YSCB 251230Z AUTO 08006KT 9999 // NCD 06/03 Q1018
YSCB 251200Z AUTO 10006KT 9999 // NCD 06/03 Q1018
YSCB 251130Z AUTO 04007KT 9999 // NCD 08/04 Q1017
YSCB 251100Z AUTO 01009KT 9999 // NCD 09/04 Q1017
YSCB 251030Z AUTO 36009KT 9999 // NCD 09/04 Q1017
YSCB 251000Z AUTO 02009KT 9999 // NCD 10/04 Q1017
YSCB 250930Z AUTO 02009KT 9999 // NCD 10/04 Q1017
YSCB 250900Z AUTO 36011KT 9999 // NCD 11/04 Q1016
YSCB 250830Z AUTO 36010KT 9999 // NCD 11/03 Q1015
YSCB 250800Z AUTO 36013KT 9999 // NCD 12/03 Q1015
YSCB 250730Z AUTO 35013KT 9999 // NCD 13/03 Q1015
YSCB 250700Z AUTO 35015KT 9999 // NCD 14/03 Q1014
YSCB 250630Z AUTO 35015KT 9999 // NCD 16/04 Q1014
YSCB 250600Z AUTO 35014KT 9999 // NCD 15/04 Q1014
YSCB 250530Z AUTO 35016KT 9999 // NCD 16/04 Q1014
YSCB 250500Z AUTO 35016KT 9999 // NCD 16/04 Q1014
YSCB 250430Z AUTO 34015KT 9999 // NCD 16/06 Q1014
YSCB 250400Z AUTO 34013KT 9999 // NCD 17/07 Q1015
YSCB 250330Z AUTO 32012KT 9999 // NCD 16/05 Q1015
YSCB 250300Z AUTO 36009KT 300V360 9999 // NCD 16/06 Q1015
YSCB 250230Z AUTO 32009KT 9999 // NCD 14/04 Q1015
YSCB 250200Z AUTO 32009KT 9999 // NCD 15/05 Q1016
YSCB 250130Z AUTO 32009KT 290V350 9999 // NCD 14/05 Q1016
YSCB 250100Z AUTO 29009KT 9999 // NCD 14/06 Q1016
YSCB 250030Z AUTO 33007KT 9999 // SCT025 12/06 Q1016
YSCB 250018Z AUTO 33007KT 290V360 9999 // SCT023 12/05 Q1017
YSCB 250000Z AUTO 28002KT 9999 // BKN021 12/06 Q1016
YSCB 242330Z AUTO 01005KT 310V030 9999 // SCT013 SCT019 10/06 Q1017
YSCB 242300Z AUTO 25002KT 9999 // OVC011 08/06 Q1017
YSCB 242230Z AUTO 19003KT 9999 // OVC009 07/07 Q1017 RF00/0/000/2
YSCB 242200Z AUTO 00000KT 9999 // OVC009 06/06 Q1017
YSCB 242130Z AUTO 00000KT 9999 // OVC009 04/04 Q1016
YSCB 242100Z AUTO 00000KT 9999 // OVC009 03/03 Q1016
YSCB 242048Z AUTO 00000KT 9999 // BKN011 02/02 Q1016 RF00.0/000.2
YSCB 242030Z AUTO 00000KT 2000 R35/0700D BR SCT001 BKN011 02/02 Q1016
YSCB 242013Z AUTO 00000KT 0600 R35/0800V1100U FG BKN001 01/01 Q1016
YSCB 242003Z AUTO 19003KT 1000 R35/0800N BR BKN001 01/01 Q1016
YSCB 241945Z AUTO 19004KT 1100 R35/0600N BR BKN001 01/01 Q1015
YSCB 241935Z AUTO 19005KT 0250 R35/0550D FG BKN001 01/01 Q1015
YSCB 241923Z AUTO 19005KT 0500 R35/0900V1300D FG BKN001 01/01 Q1015
YSCB 241906Z AUTO 13004KT 1100 BR SCT002 02/02 Q1015 RF00/0/000/2
YSCB 241857Z AUTO 13003KT 0900 FG SCT002 01/01 Q1015 RF00.0/000.2
YSCB 241835Z AUTO 00000KT 6000 // SCT002 02/01 Q1015 RF00/0/000/2
YSCB 241825Z AUTO 00000KT 9999 // NCD 02/02 Q1014 RF00/0/000/2
YSCB 241805Z AUTO 00000KT 6000 // NCD 02/02 Q1015 RF00/0/000/2
YSCB 241750Z AUTO 00000KT 9999 R35/0900VP2000U // NCD 03/03 Q1015
YSCB 241735Z AUTO 13002KT 9999 R35/0700D // NCD 03/03 Q1015
YSCB 241700Z AUTO 14005KT 9999 // NCD 03/03 Q1014
YSCB 241630Z AUTO 00000KT 9999 // NCD 04/04 Q1014
YSCB 241600Z AUTO 00000KT 9999 // NCD 05/05 Q1015
YSCB 241530Z AUTO 00000KT 9999 // NCD 06/05 Q1015
YSCB 241500Z AUTO 35005KT 9999 // NCD 07/05 Q1015
YSCB 241430Z AUTO 01006KT 9999 // NCD 07/06 Q1015
YSCB 241400Z AUTO 01006KT 9999 // NCD 07/06 Q1015
YSCB 241330Z AUTO 01006KT 9999 // NCD 08/06 Q1015
YSCB 241300Z AUTO 36007KT 9999 // NCD 09/07 Q1015
YSCB 241230Z AUTO 36007KT 9999 // BKN040 BKN049 10/07 Q1015
YSCB 241200Z AUTO 01007KT 9999 // SCT046 09/07 Q1014
YSCB 241130Z AUTO 03006KT 9999 // SCT054 10/07 Q1014
YSCB 241100Z AUTO 04005KT 020V080 9999 // BKN064 10/07 Q1014
YSCB 241030Z AUTO 03004KT 9999 // BKN049 BKN068 10/06 Q1014
YSCB 241000Z AUTO 03005KT 9999 // BKN049 11/07 Q1014
YSCB 240930Z AUTO 06004KT 340V150 9999 // SCT053 SCT069 11/07 Q1013
YSCB 240900Z AUTO 32004KT 9999 // SCT059 BKN085 11/07 Q1013
YSCB 240830Z AUTO 28007KT 9999 // BKN081 12/06 Q1012
YSCB 240800Z AUTO 29012KT 9999 // NCD 13/06 Q1012
YSCB 240730Z AUTO 28008KT 9999 // OVC088 14/05 Q1011
YSCB 240700Z AUTO 29015KT 9999 // SCT071 OVC084 14/06 Q1011
YSCB 240630Z AUTO 28016KT 9999 // SCT076 BKN086 BKN115 15/06 Q1011
YSCB 240600Z AUTO 29015KT 9999 // SCT066 BKN074 OVC086 16/06 Q1010
YSCB 240530Z AUTO 31012KT 9999 // SCT086 16/09 Q1010
YSCB 240500Z AUTO 33009KT 9999 // SCT100 SCT125 16/07 Q1009
YSCB 240430Z AUTO 33009KT 9999 // SCT062 BKN094 15/07 Q1010
YSCB 240400Z AUTO 32011KT 9999 // SCT079 BKN095 OVC120 14/08 Q1010
YSCB 240330Z AUTO 34008KT 9999 // SCT070 SCT120 16/08 Q1010
YSCB 240300Z AUTO 29007KT 9999 // SCT037 BKN063 15/08 Q1010
YSCB 240230Z AUTO 33005KT 280V350 9999 // SCT035 SCT059 BKN072 16/06 Q1011
YSCB 240200Z AUTO 30005KT 270V360 9999 // NCD 16/07 Q1011
YSCB 240130Z AUTO 29004KT 250V340 9999 // NCD 16/08 Q1011
YSCB 240100Z AUTO 19005KT 9999 // SCT034 OVC053 14/07 Q1012
YSCB 240030Z AUTO 16005KT 9999 // BKN046 OVC051 14/06 Q1012
YSCB 240000Z AUTO 18008KT 9999 // OVC040 13/07 Q1012
YSCB 232330Z AUTO 17009KT 9999 // SCT030 OVC042 13/07 Q1013
YSCB 232300Z AUTO 16010KT 9999 // BKN028 12/07 Q1012
YSCB 232230Z AUTO 18009KT 9999 // SCT024 BKN053 BKN105 12/07 Q1012
YSCB 232200Z AUTO 19010KT 9999 // SCT057 BKN099 12/08 Q1012